sensor_id;sensor_type;location;lat;lon;timestamp;pressure;altitude;pressure_sealevel;temperature;humidity
54666;BME280;40566;50.006;36.180;2024-01-11T00:02:27;99800.91;;;-2.06;78.07
54666;BME280;40566;50.006;36.180;2024-01-11T00:07:46;99782.31;;;-2.07;77.91
54666;BME280;40566;50.006;36.180;2024-01-11T00:13:06;99763.59;;;-2.12;78.10
54666;BME280;40566;50.006;36.180;2024-01-11T00:18:24;99748.25;;;-2.18;78.11
54666;BME280;40566;50.006;36.180;2024-01-11T00:23:43;99738.06;;;-2.21;78.27
54666;BME280;40566;50.006;36.180;2024-01-11T00:29:02;99723.00;;;-2.15;78.20
54666;BME280;40566;50.006;36.180;2024-01-11T00:34:21;99727.22;;;-2.14;78.05
54666;BME280;40566;50.006;36.180;2024-01-11T00:39:40;99689.66;;;-2.32;78.23
54666;BME280;40566;50.006;36.180;2024-01-11T00:44:59;99672.13;;;-2.24;78.27
54666;BME280;40566;50.006;36.180;2024-01-11T00:50:19;99654.59;;;-2.15;78.24
54666;BME280;40566;50.006;36.180;2024-01-11T00:55:38;99657.13;;;-2.13;78.16
54666;BME280;40566;50.006;36.180;2024-01-11T01:00:57;99642.69;;;-2.19;78.42
54666;BME280;40566;50.006;36.180;2024-01-11T01:06:16;99634.19;;;-2.21;78.52
54666;BME280;40566;50.006;36.180;2024-01-11T01:11:35;99626.47;;;-2.26;78.42
54666;BME280;40566;50.006;36.180;2024-01-11T01:16:54;99629.66;;;-2.34;78.73
54666;BME280;40566;50.006;36.180;2024-01-11T01:22:13;99609.09;;;-2.48;78.81
54666;BME280;40566;50.006;36.180;2024-01-11T01:27:32;99604.16;;;-2.42;78.93
54666;BME280;40566;50.006;36.180;2024-01-11T01:32:51;99595.72;;;-2.43;78.94
54666;BME280;40566;50.006;36.180;2024-01-11T01:38:10;99584.84;;;-2.37;78.97
54666;BME280;40566;50.006;36.180;2024-01-11T01:43:29;99570.56;;;-2.35;78.87
54666;BME280;40566;50.006;36.180;2024-01-11T01:48:49;99545.97;;;-2.41;78.89
54666;BME280;40566;50.006;36.180;2024-01-11T01:54:08;99550.94;;;-2.44;79.19
54666;BME280;40566;50.006;36.180;2024-01-11T01:59:27;99529.88;;;-2.43;79.13
54666;BME280;40566;50.006;36.180;2024-01-11T02:04:48;99513.81;;;-2.45;79.30
54666;BME280;40566;50.006;36.180;2024-01-11T02:10:07;99500.06;;;-2.56;79.63
54666;BME280;40566;50.006;36.180;2024-01-11T02:15:27;99483.97;;;-2.58;79.68
54666;BME280;40566;50.006;36.180;2024-01-11T02:20:47;99475.63;;;-2.54;79.70
54666;BME280;40566;50.006;36.180;2024-01-11T02:26:06;99467.94;;;-2.58;79.59
54666;BME280;40566;50.006;36.180;2024-01-11T02:31:25;99448.59;;;-2.53;79.92
54666;BME280;40566;50.006;36.180;2024-01-11T02:36:45;99424.22;;;-2.50;79.79
54666;BME280;40566;50.006;36.180;2024-01-11T02:42:04;99405.75;;;-2.44;79.84
54666;BME280;40566;50.006;36.180;2024-01-11T02:47:24;99402.41;;;-2.42;79.79
54666;BME280;40566;50.006;36.180;2024-01-11T02:52:43;99390.41;;;-2.52;80.02
54666;BME280;40566;50.006;36.180;2024-01-11T02:58:02;99381.19;;;-2.48;79.84
54666;BME280;40566;50.006;36.180;2024-01-11T03:03:22;99371.00;;;-2.51;79.95
54666;BME280;40566;50.006;36.180;2024-01-11T03:08:40;99352.97;;;-2.68;80.16
54666;BME280;40566;50.006;36.180;2024-01-11T03:13:59;99323.50;;;-2.65;80.13
54666;BME280;40566;50.006;36.180;2024-01-11T03:19:18;99299.72;;;-2.74;80.17
54666;BME280;40566;50.006;36.180;2024-01-11T03:24:38;99307.41;;;-2.68;80.15
54666;BME280;40566;50.006;36.180;2024-01-11T03:30:00;99295.50;;;-2.74;80.35
54666;BME280;40566;50.006;36.180;2024-01-11T03:35:20;99283.69;;;-2.73;80.25
54666;BME280;40566;50.006;36.180;2024-01-11T03:40:39;99288.81;;;-2.70;80.20
54666;BME280;40566;50.006;36.180;2024-01-11T03:45:58;99283.56;;;-2.80;80.44
54666;BME280;40566;50.006;36.180;2024-01-11T03:51:17;99264.94;;;-2.83;80.74
54666;BME280;40566;50.006;36.180;2024-01-11T03:56:39;99249.72;;;-2.85;80.89
54666;BME280;40566;50.006;36.180;2024-01-11T04:01:58;99245.41;;;-2.90;81.27
54666;BME280;40566;50.006;36.180;2024-01-11T04:07:17;99220.25;;;-2.83;81.35
54666;BME280;40566;50.006;36.180;2024-01-11T04:12:36;99207.72;;;-2.75;80.92
54666;BME280;40566;50.006;36.180;2024-01-11T04:17:56;99196.69;;;-2.80;81.08
54666;BME280;40566;50.006;36.180;2024-01-11T04:23:15;99172.09;;;-2.87;81.34
54666;BME280;40566;50.006;36.180;2024-01-11T04:28:33;99170.22;;;-2.99;81.41
54666;BME280;40566;50.006;36.180;2024-01-11T04:33:53;99176.91;;;-3.01;81.82
54666;BME280;40566;50.006;36.180;2024-01-11T04:39:12;99160.91;;;-3.02;82.03
54666;BME280;40566;50.006;36.180;2024-01-11T04:44:31;99148.47;;;-2.88;81.62
54666;BME280;40566;50.006;36.180;2024-01-11T04:49:50;99145.84;;;-2.92;81.71
54666;BME280;40566;50.006;36.180;2024-01-11T04:55:09;99127.34;;;-2.90;81.64
54666;BME280;40566;50.006;36.180;2024-01-11T05:00:28;99118.97;;;-2.86;81.66
54666;BME280;40566;50.006;36.180;2024-01-11T05:05:47;99103.88;;;-2.81;81.45
54666;BME280;40566;50.006;36.180;2024-01-11T05:11:05;99115.47;;;-2.92;81.48
54666;BME280;40566;50.006;36.180;2024-01-11T05:16:27;99084.38;;;-2.88;81.66
54666;BME280;40566;50.006;36.180;2024-01-11T05:21:46;99075.00;;;-2.94;81.68
54666;BME280;40566;50.006;36.180;2024-01-11T05:27:05;99067.41;;;-2.94;81.67
54666;BME280;40566;50.006;36.180;2024-01-11T05:32:24;99051.38;;;-2.93;81.79
54666;BME280;40566;50.006;36.180;2024-01-11T05:37:43;99050.53;;;-2.93;81.92
54666;BME280;40566;50.006;36.180;2024-01-11T05:43:02;99040.25;;;-3.04;81.95
54666;BME280;40566;50.006;36.180;2024-01-11T05:48:20;99037.72;;;-3.06;82.30
54666;BME280;40566;50.006;36.180;2024-01-11T05:53:39;99026.03;;;-2.97;82.28
54666;BME280;40566;50.006;36.180;2024-01-11T05:58:58;99007.53;;;-2.93;82.01
54666;BME280;40566;50.006;36.180;2024-01-11T06:04:18;99006.78;;;-2.88;81.84
54666;BME280;40566;50.006;36.180;2024-01-11T06:09:37;98985.59;;;-2.93;82.04
54666;BME280;40566;50.006;36.180;2024-01-11T06:14:56;98967.84;;;-2.97;81.91
54666;BME280;40566;50.006;36.180;2024-01-11T06:20:14;98955.19;;;-2.97;82.30
54666;BME280;40566;50.006;36.180;2024-01-11T06:25:33;98945.09;;;-2.94;82.18
54666;BME280;40566;50.006;36.180;2024-01-11T06:30:52;98939.22;;;-2.93;82.24
54666;BME280;40566;50.006;36.180;2024-01-11T06:36:12;98930.91;;;-2.86;82.01
54666;BME280;40566;50.006;36.180;2024-01-11T06:41:31;98927.41;;;-2.93;82.27
54666;BME280;40566;50.006;36.180;2024-01-11T06:46:50;98923.38;;;-2.80;82.24
54666;BME280;40566;50.006;36.180;2024-01-11T06:52:09;98909.09;;;-2.73;81.85
54666;BME280;40566;50.006;36.180;2024-01-11T06:57:28;98905.72;;;-2.75;81.63
54666;BME280;40566;50.006;36.180;2024-01-11T07:02:47;98903.19;;;-2.74;81.93
54666;BME280;40566;50.006;36.180;2024-01-11T07:08:06;98885.41;;;-2.82;81.88
54666;BME280;40566;50.006;36.180;2024-01-11T07:13:25;98886.13;;;-2.92;82.15
54666;BME280;40566;50.006;36.180;2024-01-11T07:18:44;98885.44;;;-2.77;81.86
54666;BME280;40566;50.006;36.180;2024-01-11T07:24:03;98892.31;;;-2.65;81.61
54666;BME280;40566;50.006;36.180;2024-01-11T07:29:22;98880.59;;;-2.57;81.13
54666;BME280;40566;50.006;36.180;2024-01-11T07:34:41;98869.56;;;-2.64;81.49
54666;BME280;40566;50.006;36.180;2024-01-11T07:40:00;98855.19;;;-2.66;81.35
54666;BME280;40566;50.006;36.180;2024-01-11T07:45:19;98860.44;;;-2.48;81.39
54666;BME280;40566;50.006;36.180;2024-01-11T07:50:38;98854.59;;;-2.42;80.67
54666;BME280;40566;50.006;36.180;2024-01-11T07:55:58;98853.69;;;-2.49;81.13
54666;BME280;40566;50.006;36.180;2024-01-11T08:01:17;98846.97;;;-2.44;81.04
54666;BME280;40566;50.006;36.180;2024-01-11T08:06:36;98836.91;;;-2.37;80.67
54666;BME280;40566;50.006;36.180;2024-01-11T08:11:55;98814.91;;;-2.45;80.95
54666;BME280;40566;50.006;36.180;2024-01-11T08:17:14;98809.72;;;-2.58;80.94
54666;BME280;40566;50.006;36.180;2024-01-11T08:22:33;98809.66;;;-2.66;81.38
54666;BME280;40566;50.006;36.180;2024-01-11T08:27:54;98803.88;;;-2.50;81.08
54666;BME280;40566;50.006;36.180;2024-01-11T08:33:14;98803.13;;;-2.43;80.67
54666;BME280;40566;50.006;36.180;2024-01-11T08:38:33;98782.78;;;-2.50;80.78
54666;BME280;40566;50.006;36.180;2024-01-11T08:43:52;98773.56;;;-2.42;80.81
54666;BME280;40566;50.006;36.180;2024-01-11T08:49:12;98761.03;;;-2.25;80.92
54666;BME280;40566;50.006;36.180;2024-01-11T08:54:31;98759.25;;;-2.38;80.49
54666;BME280;40566;50.006;36.180;2024-01-11T08:59:53;98751.63;;;-2.45;80.68
54666;BME280;40566;50.006;36.180;2024-01-11T09:05:16;98728.84;;;-2.42;80.97
54666;BME280;40566;50.006;36.180;2024-01-11T09:10:35;98752.53;;;-2.36;80.80
54666;BME280;40566;50.006;36.180;2024-01-11T09:15:55;98734.72;;;-2.44;81.07
54666;BME280;40566;50.006;36.180;2024-01-11T09:21:14;98723.00;;;-2.34;81.12
54666;BME280;40566;50.006;36.180;2024-01-11T09:26:33;98718.94;;;-2.11;80.69
54666;BME280;40566;50.006;36.180;2024-01-11T09:31:52;98705.47;;;-2.02;80.79
54666;BME280;40566;50.006;36.180;2024-01-11T09:37:11;98690.38;;;-1.84;80.43
54666;BME280;40566;50.006;36.180;2024-01-11T09:42:30;98683.63;;;-1.82;80.51
54666;BME280;40566;50.006;36.180;2024-01-11T09:47:49;98681.06;;;-1.83;80.57
54666;BME280;40566;50.006;36.180;2024-01-11T09:53:10;98663.28;;;-1.94;80.94
54666;BME280;40566;50.006;36.180;2024-01-11T09:58:29;98652.31;;;-1.88;80.85
54666;BME280;40566;50.006;36.180;2024-01-11T10:03:48;98635.44;;;-1.86;80.75
54666;BME280;40566;50.006;36.180;2024-01-11T10:09:07;98600.81;;;-1.84;81.00
54666;BME280;40566;50.006;36.180;2024-01-11T10:14:27;98599.13;;;-1.85;80.86
54666;BME280;40566;50.006;36.180;2024-01-11T10:19:47;98591.56;;;-1.71;80.79
54666;BME280;40566;50.006;36.180;2024-01-11T10:25:13;98580.59;;;-1.60;80.75
54666;BME280;40566;50.006;36.180;2024-01-11T10:30:32;98576.41;;;-1.56;80.67
54666;BME280;40566;50.006;36.180;2024-01-11T10:35:52;98562.84;;;-1.61;80.70
54666;BME280;40566;50.006;36.180;2024-01-11T10:41:12;98556.09;;;-1.64;80.69
54666;BME280;40566;50.006;36.180;2024-01-11T10:46:33;98542.56;;;-1.56;80.75
54666;BME280;40566;50.006;36.180;2024-01-11T10:51:59;98544.25;;;-1.68;80.98
54666;BME280;40566;50.006;36.180;2024-01-11T10:57:18;98551.84;;;-1.65;80.82
54666;BME280;40566;50.006;36.180;2024-01-11T11:02:39;98527.34;;;-1.69;80.84
54666;BME280;40566;50.006;36.180;2024-01-11T11:08:01;98514.66;;;-1.72;81.00
54666;BME280;40566;50.006;36.180;2024-01-11T11:13:20;98516.38;;;-1.58;80.50
54666;BME280;40566;50.006;36.180;2024-01-11T11:18:40;98501.16;;;-1.58;80.52
54666;BME280;40566;50.006;36.180;2024-01-11T11:23:59;98492.72;;;-1.56;80.53
54666;BME280;40566;50.006;36.180;2024-01-11T11:29:22;98493.56;;;-1.62;80.65
54666;BME280;40566;50.006;36.180;2024-01-11T11:34:42;98490.19;;;-1.64;80.86
54666;BME280;40566;50.006;36.180;2024-01-11T11:40:05;98487.63;;;-1.61;80.65
54666;BME280;40566;50.006;36.180;2024-01-11T11:45:26;98465.69;;;-1.62;80.56
54666;BME280;40566;50.006;36.180;2024-01-11T11:50:45;98482.56;;;-1.71;80.69
54666;BME280;40566;50.006;36.180;2024-01-11T11:56:06;98456.38;;;-1.73;80.55
54666;BME280;40566;50.006;36.180;2024-01-11T12:01:25;98458.06;;;-1.72;80.49
54666;BME280;40566;50.006;36.180;2024-01-11T12:06:44;98461.44;;;-1.76;80.52
54666;BME280;40566;50.006;36.180;2024-01-11T12:12:04;98453.00;;;-1.83;80.67
54666;BME280;40566;50.006;36.180;2024-01-11T12:17:24;98457.22;;;-1.70;80.39
54666;BME280;40566;50.006;36.180;2024-01-11T12:22:42;98446.22;;;-1.70;80.51
54666;BME280;40566;50.006;36.180;2024-01-11T12:28:01;98434.41;;;-1.57;80.02
54666;BME280;40566;50.006;36.180;2024-01-11T12:33:21;98433.56;;;-1.63;80.03
54666;BME280;40566;50.006;36.180;2024-01-11T12:38:46;98431.00;;;-1.63;80.16
54666;BME280;40566;50.006;36.180;2024-01-11T12:44:05;98429.31;;;-1.59;80.07
54666;BME280;40566;50.006;36.180;2024-01-11T12:49:24;98415.81;;;-1.76;80.13
54666;BME280;40566;50.006;36.180;2024-01-11T12:54:44;98417.50;;;-1.77;80.33
54666;BME280;40566;50.006;36.180;2024-01-11T13:00:14;98407.34;;;-1.78;80.01
54666;BME280;40566;50.006;36.180;2024-01-11T13:05:35;98415.81;;;-1.78;80.14
54666;BME280;40566;50.006;36.180;2024-01-11T13:10:55;98407.38;;;-1.85;80.26
54666;BME280;40566;50.006;36.180;2024-01-11T13:16:14;98396.38;;;-1.94;80.33
54666;BME280;40566;50.006;36.180;2024-01-11T13:21:34;98382.03;;;-1.91;80.13
54666;BME280;40566;50.006;36.180;2024-01-11T13:26:53;98376.09;;;-1.97;80.32
54666;BME280;40566;50.006;36.180;2024-01-11T13:32:12;98377.81;;;-1.93;80.18
54666;BME280;40566;50.006;36.180;2024-01-11T13:37:31;98368.50;;;-1.90;80.22
54666;BME280;40566;50.006;36.180;2024-01-11T13:42:50;98372.72;;;-1.90;80.15
54666;BME280;40566;50.006;36.180;2024-01-11T13:48:10;98360.03;;;-1.86;80.22
54666;BME280;40566;50.006;36.180;2024-01-11T13:53:29;98346.53;;;-1.78;80.06
54666;BME280;40566;50.006;36.180;2024-01-11T13:58:49;98351.63;;;-1.82;80.22
54666;BME280;40566;50.006;36.180;2024-01-11T14:04:08;98354.16;;;-1.85;80.40
54666;BME280;40566;50.006;36.180;2024-01-11T14:09:27;98338.94;;;-1.75;80.25
54666;BME280;40566;50.006;36.180;2024-01-11T14:14:46;98342.31;;;-1.75;80.09
54666;BME280;40566;50.006;36.180;2024-01-11T14:20:06;98334.72;;;-1.80;80.34
54666;BME280;40566;50.006;36.180;2024-01-11T14:25:30;98341.50;;;-1.82;80.21
54666;BME280;40566;50.006;36.180;2024-01-11T14:30:49;98333.00;;;-1.73;80.46
54666;BME280;40566;50.006;36.180;2024-01-11T14:36:08;98324.56;;;-1.75;80.22
54666;BME280;40566;50.006;36.180;2024-01-11T14:41:27;98314.44;;;-1.76;80.40
54666;BME280;40566;50.006;36.180;2024-01-11T14:46:46;98319.50;;;-1.86;80.43
54666;BME280;40566;50.006;36.180;2024-01-11T14:52:05;98324.56;;;-1.83;80.33
54666;BME280;40566;50.006;36.180;2024-01-11T14:57:25;98316.97;;;-1.81;80.44
54666;BME280;40566;50.006;36.180;2024-01-11T15:02:44;98310.19;;;-1.76;80.42
54666;BME280;40566;50.006;36.180;2024-01-11T15:08:04;98311.06;;;-1.77;80.63
54666;BME280;40566;50.006;36.180;2024-01-11T15:13:24;98305.16;;;-1.79;80.60
54666;BME280;40566;50.006;36.180;2024-01-11T15:18:43;98303.44;;;-1.77;80.66
54666;BME280;40566;50.006;36.180;2024-01-11T15:24:02;98289.06;;;-1.72;80.56
54666;BME280;40566;50.006;36.180;2024-01-11T15:29:22;98289.94;;;-1.71;80.53
54666;BME280;40566;50.006;36.180;2024-01-11T15:34:40;98291.63;;;-1.66;80.59
54666;BME280;40566;50.006;36.180;2024-01-11T15:40:00;98289.06;;;-1.72;80.57
54666;BME280;40566;50.006;36.180;2024-01-11T15:45:19;98291.59;;;-1.72;80.58
54666;BME280;40566;50.006;36.180;2024-01-11T15:50:39;98299.19;;;-1.70;80.75
54666;BME280;40566;50.006;36.180;2024-01-11T15:55:58;98295.84;;;-1.71;80.84
54666;BME280;40566;50.006;36.180;2024-01-11T16:01:17;98286.53;;;-1.72;80.75
54666;BME280;40566;50.006;36.180;2024-01-11T16:06:36;98287.38;;;-1.73;81.00
54666;BME280;40566;50.006;36.180;2024-01-11T16:11:57;98278.06;;;-1.62;80.65
54666;BME280;40566;50.006;36.180;2024-01-11T16:17:16;98267.94;;;-1.62;80.55
54666;BME280;40566;50.006;36.180;2024-01-11T16:22:36;98262.88;;;-1.65;80.65
54666;BME280;40566;50.006;36.180;2024-01-11T16:27:55;98246.78;;;-1.57;80.66
54666;BME280;40566;50.006;36.180;2024-01-11T16:33:14;98245.09;;;-1.57;80.58
54666;BME280;40566;50.006;36.180;2024-01-11T16:38:33;98240.06;;;-1.62;80.68
54666;BME280;40566;50.006;36.180;2024-01-11T16:43:52;98242.56;;;-1.54;80.64
54666;BME280;40566;50.006;36.180;2024-01-11T16:49:11;98236.63;;;-1.53;80.46
54666;BME280;40566;50.006;36.180;2024-01-11T16:54:32;98236.63;;;-1.51;80.43
54666;BME280;40566;50.006;36.180;2024-01-11T16:59:51;98227.31;;;-1.51;80.56
54666;BME280;40566;50.006;36.180;2024-01-11T17:05:10;98211.25;;;-1.47;80.52
54666;BME280;40566;50.006;36.180;2024-01-11T17:10:29;98215.47;;;-1.50;80.68
54666;BME280;40566;50.006;36.180;2024-01-11T17:15:48;98207.03;;;-1.49;80.64
54666;BME280;40566;50.006;36.180;2024-01-11T17:21:07;98194.38;;;-1.49;80.70
54666;BME280;40566;50.006;36.180;2024-01-11T17:26:26;98210.47;;;-1.60;80.69
54666;BME280;40566;50.006;36.180;2024-01-11T17:31:46;98200.25;;;-1.47;80.54
54666;BME280;40566;50.006;36.180;2024-01-11T17:37:05;98192.63;;;-1.41;80.30
54666;BME280;40566;50.006;36.180;2024-01-11T17:42:24;98200.25;;;-1.49;80.63
54666;BME280;40566;50.006;36.180;2024-01-11T17:47:43;98185.09;;;-1.53;80.65
54666;BME280;40566;50.006;36.180;2024-01-11T17:53:02;98179.19;;;-1.58;80.67
54666;BME280;40566;50.006;36.180;2024-01-11T17:58:22;98184.25;;;-1.55;80.62
54666;BME280;40566;50.006;36.180;2024-01-11T18:03:41;98176.63;;;-1.52;80.52
54666;BME280;40566;50.006;36.180;2024-01-11T18:09:00;98183.41;;;-1.57;80.82
54666;BME280;40566;50.006;36.180;2024-01-11T18:14:20;98171.53;;;-1.52;80.70
54666;BME280;40566;50.006;36.180;2024-01-11T18:19:39;98163.94;;;-1.49;80.65
54666;BME280;40566;50.006;36.180;2024-01-11T18:24:58;98168.16;;;-1.50;80.59
54666;BME280;40566;50.006;36.180;2024-01-11T18:30:17;98174.97;;;-1.63;80.88
54666;BME280;40566;50.006;36.180;2024-01-11T18:35:36;98162.25;;;-1.52;80.68
54666;BME280;40566;50.006;36.180;2024-01-11T18:40:55;98162.22;;;-1.50;80.60
54666;BME280;40566;50.006;36.180;2024-01-11T18:46:14;98161.38;;;-1.46;80.43
54666;BME280;40566;50.006;36.180;2024-01-11T18:51:42;98169.00;;;-1.48;80.54
54666;BME280;40566;50.006;36.180;2024-01-11T18:57:01;98176.56;;;-1.43;80.56
54666;BME280;40566;50.006;36.180;2024-01-11T19:02:24;98155.47;;;-1.44;80.52
54666;BME280;40566;50.006;36.180;2024-01-11T19:07:43;98163.06;;;-1.45;80.60
54666;BME280;40566;50.006;36.180;2024-01-11T19:13:02;98154.53;;;-1.33;80.50
54666;BME280;40566;50.006;36.180;2024-01-11T19:18:22;98163.00;;;-1.33;80.15
54666;BME280;40566;50.006;36.180;2024-01-11T19:23:41;98167.22;;;-1.33;80.42
54666;BME280;40566;50.006;36.180;2024-01-11T19:29:01;98148.59;;;-1.29;80.23
54666;BME280;40566;50.006;36.180;2024-01-11T19:34:20;98146.94;;;-1.33;80.29
54666;BME280;40566;50.006;36.180;2024-01-11T19:39:39;98147.78;;;-1.30;80.33
54666;BME280;40566;50.006;36.180;2024-01-11T19:44:58;98139.31;;;-1.30;80.39
54666;BME280;40566;50.006;36.180;2024-01-11T19:50:17;98133.34;;;-1.22;80.26
54666;BME280;40566;50.006;36.180;2024-01-11T19:55:36;98127.47;;;-1.28;80.20
54666;BME280;40566;50.006;36.180;2024-01-11T20:00:56;98136.78;;;-1.35;80.37
54666;BME280;40566;50.006;36.180;2024-01-11T20:06:15;98125.81;;;-1.37;80.51
54666;BME280;40566;50.006;36.180;2024-01-11T20:11:34;98108.91;;;-1.36;80.41
54666;BME280;40566;50.006;36.180;2024-01-11T20:16:53;98114.84;;;-1.36;80.48
54666;BME280;40566;50.006;36.180;2024-01-11T20:22:12;98115.72;;;-1.40;80.46
54666;BME280;40566;50.006;36.180;2024-01-11T20:27:31;98108.16;;;-1.51;80.75
54666;BME280;40566;50.006;36.180;2024-01-11T20:32:50;98106.50;;;-1.53;80.85
54666;BME280;40566;50.006;36.180;2024-01-11T20:38:09;98106.44;;;-1.49;80.78
54666;BME280;40566;50.006;36.180;2024-01-11T20:43:29;98111.53;;;-1.46;80.78
54666;BME280;40566;50.006;36.180;2024-01-11T20:48:47;98107.28;;;-1.48;80.81
54666;BME280;40566;50.006;36.180;2024-01-11T20:54:06;98124.19;;;-1.49;80.82
54666;BME280;40566;50.006;36.180;2024-01-11T20:59:25;98142.03;;;-1.63;80.88
54666;BME280;40566;50.006;36.180;2024-01-11T21:04:45;98150.53;;;-1.76;81.51
54666;BME280;40566;50.006;36.180;2024-01-11T21:10:04;98150.59;;;-1.84;81.54
54666;BME280;40566;50.006;36.180;2024-01-11T21:15:24;98159.91;;;-1.96;81.68
54666;BME280;40566;50.006;36.180;2024-01-11T21:20:45;98163.28;;;-1.96;81.74
54666;BME280;40566;50.006;36.180;2024-01-11T21:26:07;98179.31;;;-1.94;81.37
54666;BME280;40566;50.006;36.180;2024-01-11T21:31:28;98190.31;;;-1.98;81.33
54666;BME280;40566;50.006;36.180;2024-01-11T21:36:47;98194.53;;;-2.00;81.28
54666;BME280;40566;50.006;36.180;2024-01-11T21:42:05;98210.59;;;-2.04;81.11
54666;BME280;40566;50.006;36.180;2024-01-11T21:47:25;98219.84;;;-1.94;80.87
54666;BME280;40566;50.006;36.180;2024-01-11T21:52:44;98229.97;;;-1.88;80.32
54666;BME280;40566;50.006;36.180;2024-01-11T21:58:04;98229.97;;;-1.83;80.03
54666;BME280;40566;50.006;36.180;2024-01-11T22:03:24;98256.16;;;-1.90;80.19
54666;BME280;40566;50.006;36.180;2024-01-11T22:08:43;98274.78;;;-1.99;80.18
54666;BME280;40566;50.006;36.180;2024-01-11T22:14:02;98293.34;;;-2.08;80.19
54666;BME280;40566;50.006;36.180;2024-01-11T22:19:22;98315.28;;;-2.31;80.17
54666;BME280;40566;50.006;36.180;2024-01-11T22:24:41;98318.66;;;-2.54;80.38
54666;BME280;40566;50.006;36.180;2024-01-11T22:29:59;98328.72;;;-2.79;80.55
54666;BME280;40566;50.006;36.180;2024-01-11T22:35:18;98346.44;;;-2.86;80.48
54666;BME280;40566;50.006;36.180;2024-01-11T22:40:38;98364.94;;;-2.95;80.39
54666;BME280;40566;50.006;36.180;2024-01-11T22:45:57;98369.94;;;-3.12;80.49
54666;BME280;40566;50.006;36.180;2024-01-11T22:51:16;98399.38;;;-3.22;80.12
54666;BME280;40566;50.006;36.180;2024-01-11T22:56:38;98416.13;;;-3.39;80.18
54666;BME280;40566;50.006;36.180;2024-01-11T23:01:57;98431.16;;;-3.61;80.35
54666;BME280;40566;50.006;36.180;2024-01-11T23:07:16;98450.47;;;-3.69;80.28
54666;BME280;40566;50.006;36.180;2024-01-11T23:12:36;98463.00;;;-3.78;80.49
54666;BME280;40566;50.006;36.180;2024-01-11T23:17:56;98468.88;;;-3.81;80.41
54666;BME280;40566;50.006;36.180;2024-01-11T23:23:17;98505.00;;;-3.88;80.15
54666;BME280;40566;50.006;36.180;2024-01-11T23:28:37;98509.81;;;-4.11;79.89
54666;BME280;40566;50.006;36.180;2024-01-11T23:33:56;98522.06;;;-4.45;79.54
54666;BME280;40566;50.006;36.180;2024-01-11T23:39:15;98543.50;;;-4.76;79.69
54666;BME280;40566;50.006;36.180;2024-01-11T23:44:34;98566.03;;;-4.88;79.71
54666;BME280;40566;50.006;36.180;2024-01-11T23:49:53;98581.75;;;-5.06;79.47
54666;BME280;40566;50.006;36.180;2024-01-11T23:55:12;98582.22;;;-5.27;79.23
